DLH5KH EDDM-EKCH
Flight info
| Callsign | DLH5KH |
|---|---|
| Flight time | 1h 11m |
| Altitude | 34000 |
| Route | INPUD2S INPUD Y102 UPALA M726 LASGA DCT BKD DCT LUWIL DCT BERIM/N0448F350 DCT MAKEL N851 GESKA/N0449F360 Z711 MONAK |
| Aircraft | A321/M-SDE3FGHIRWY/LB1 |
Departure
| Time | 2026-05-07 19:45 |
|---|---|
| Airport | Munich Airport (EDDM) |
Arrival
| Time | 2026-05-07 20:57 |
|---|---|
| Airport | Copenhagen Kastrup Airport (EKCH) |
| Time | Latitude | Longitude | Altitude | Speed | Heading |
|---|---|---|---|---|---|
| 2026-05-07 19:24 | 48.35352 | 11.79309 | 1462 ft | 0 kts | 261° |
| 2026-05-07 19:35 | 48.35352 | 11.79315 | 1462 ft | 3 kts | 261° |
| 2026-05-07 19:35 | 48.35355 | 11.79342 | 1456 ft | 3 kts | 261° |
| 2026-05-07 19:35 | 48.35358 | 11.79370 | 1457 ft | 3 kts | 261° |
| 2026-05-07 19:35 | 48.35361 | 11.79398 | 1458 ft | 3 kts | 266° |
| 2026-05-07 19:36 | 48.35357 | 11.79425 | 1458 ft | 3 kts | 294° |
| 2026-05-07 19:36 | 48.35349 | 11.79449 | 1460 ft | 3 kts | 335° |
| 2026-05-07 19:36 | 48.35338 | 11.79454 | 1460 ft | 0 kts | 351° |
| 2026-05-07 19:38 | 48.35339 | 11.79454 | 1467 ft | 1 kts | 352° |
| 2026-05-07 19:38 | 48.35346 | 11.79456 | 1460 ft | 2 kts | 5° |
| 2026-05-07 19:38 | 48.35352 | 11.79456 | 1462 ft | 0 kts | 5° |
| 2026-05-07 19:39 | 48.35360 | 11.79458 | 1465 ft | 3 kts | 5° |
| 2026-05-07 19:39 | 48.35409 | 11.79478 | 1464 ft | 11 kts | 21° |
| 2026-05-07 19:39 | 48.35492 | 11.79511 | 1467 ft | 13 kts | 4° |
| 2026-05-07 19:39 | 48.35590 | 11.79499 | 1463 ft | 15 kts | 353° |
| 2026-05-07 19:40 | 48.35699 | 11.79479 | 1463 ft | 17 kts | 353° |
| 2026-05-07 19:40 | 48.35817 | 11.79459 | 1463 ft | 18 kts | 353° |
| 2026-05-07 19:40 | 48.35937 | 11.79498 | 1464 ft | 16 kts | 17° |
| 2026-05-07 19:40 | 48.36008 | 11.79495 | 1457 ft | 5 kts | 355° |
| 2026-05-07 19:41 | 48.36068 | 11.79487 | 1459 ft | 15 kts | 355° |
| 2026-05-07 19:41 | 48.36184 | 11.79479 | 1468 ft | 17 kts | 17° |
| 2026-05-07 19:41 | 48.36227 | 11.79638 | 1464 ft | 18 kts | 84° |
| 2026-05-07 19:41 | 48.36240 | 11.79825 | 1462 ft | 19 kts | 83° |
| 2026-05-07 19:42 | 48.36256 | 11.80029 | 1468 ft | 20 kts | 83° |
| 2026-05-07 19:42 | 48.36274 | 11.80246 | 1463 ft | 21 kts | 83° |
| 2026-05-07 19:42 | 48.36292 | 11.80473 | 1465 ft | 22 kts | 83° |
| 2026-05-07 19:42 | 48.36311 | 11.80709 | 1459 ft | 23 kts | 83° |
| 2026-05-07 19:43 | 48.36328 | 11.80953 | 1467 ft | 24 kts | 84° |
| 2026-05-07 19:43 | 48.36346 | 11.81204 | 1467 ft | 24 kts | 82° |
| 2026-05-07 19:43 | 48.36368 | 11.81461 | 1464 ft | 25 kts | 83° |
| 2026-05-07 19:43 | 48.36386 | 11.81722 | 1466 ft | 25 kts | 84° |
| 2026-05-07 19:44 | 48.36404 | 11.81963 | 1466 ft | 18 kts | 81° |
| 2026-05-07 19:44 | 48.36465 | 11.82011 | 1466 ft | 12 kts | 352° |
| 2026-05-07 19:44 | 48.36579 | 11.81987 | 1466 ft | 19 kts | 355° |
| 2026-05-07 19:44 | 48.36668 | 11.81879 | 1463 ft | 19 kts | 273° |
| 2026-05-07 19:45 | 48.36645 | 11.81551 | 1467 ft | 59 kts | 263° |
| 2026-05-07 19:45 | 48.36572 | 11.80589 | 1468 ft | 124 kts | 263° |
| 2026-05-07 19:45 | 48.36451 | 11.79013 | 1464 ft | 176 kts | 260° |
| 2026-05-07 19:45 | 48.36321 | 11.77211 | 2242 ft | 168 kts | 266° |
| 2026-05-07 19:46 | 48.36204 | 11.75442 | 2903 ft | 178 kts | 265° |
| 2026-05-07 19:46 | 48.36060 | 11.73487 | 3213 ft | 198 kts | 264° |
| 2026-05-07 19:46 | 48.35896 | 11.71311 | 3403 ft | 221 kts | 264° |
| 2026-05-07 19:46 | 48.35818 | 11.68946 | 3806 ft | 230 kts | 279° |
| 2026-05-07 19:47 | 48.36446 | 11.66760 | 4433 ft | 231 kts | 310° |
| 2026-05-07 19:47 | 48.37803 | 11.65352 | 4775 ft | 252 kts | 343° |
| 2026-05-07 19:47 | 48.39581 | 11.64814 | 5232 ft | 266 kts | 349° |
| 2026-05-07 19:47 | 48.41421 | 11.64319 | 5947 ft | 271 kts | 348° |
| 2026-05-07 19:48 | 48.43279 | 11.63791 | 6687 ft | 274 kts | 347° |
| 2026-05-07 19:48 | 48.45161 | 11.63242 | 7004 ft | 276 kts | 347° |
| 2026-05-07 19:48 | 48.47049 | 11.62695 | 7063 ft | 276 kts | 347° |
| 2026-05-07 19:48 | 48.48928 | 11.62142 | 7079 ft | 275 kts | 346° |
| 2026-05-07 19:49 | 48.50804 | 11.61586 | 7082 ft | 274 kts | 346° |
| 2026-05-07 19:49 | 48.52676 | 11.61035 | 7078 ft | 274 kts | 346° |
| 2026-05-07 19:49 | 48.54544 | 11.60488 | 7079 ft | 273 kts | 346° |
| 2026-05-07 19:49 | 48.56412 | 11.59935 | 7080 ft | 273 kts | 345° |
| 2026-05-07 19:50 | 48.58216 | 11.59094 | 7083 ft | 271 kts | 336° |
| 2026-05-07 19:50 | 48.59978 | 11.58067 | 7082 ft | 271 kts | 336° |
| 2026-05-07 19:50 | 48.61737 | 11.57039 | 7083 ft | 271 kts | 336° |
| 2026-05-07 19:50 | 48.63505 | 11.56009 | 7358 ft | 273 kts | 336° |
| 2026-05-07 19:51 | 48.65283 | 11.54973 | 8130 ft | 275 kts | 335° |
| 2026-05-07 19:51 | 48.67078 | 11.53930 | 8879 ft | 278 kts | 335° |
| 2026-05-07 19:51 | 48.68892 | 11.52884 | 9617 ft | 281 kts | 335° |
| 2026-05-07 19:51 | 48.70728 | 11.51825 | 10286 ft | 286 kts | 335° |
| 2026-05-07 19:52 | 48.72665 | 11.50700 | 10434 ft | 310 kts | 335° |
| 2026-05-07 19:52 | 48.74747 | 11.49495 | 10575 ft | 331 kts | 336° |
| 2026-05-07 19:52 | 48.76979 | 11.48237 | 10699 ft | 353 kts | 340° |
| 2026-05-07 19:52 | 48.79417 | 11.47591 | 11015 ft | 367 kts | 350° |
| 2026-05-07 19:53 | 48.81968 | 11.47136 | 11578 ft | 371 kts | 350° |
| 2026-05-07 19:53 | 48.84549 | 11.46651 | 12169 ft | 374 kts | 350° |
| 2026-05-07 19:53 | 48.87161 | 11.46154 | 12780 ft | 377 kts | 350° |
| 2026-05-07 19:53 | 48.89775 | 11.45653 | 13379 ft | 380 kts | 351° |
| 2026-05-07 19:54 | 48.92405 | 11.45157 | 13995 ft | 382 kts | 351° |
| 2026-05-07 19:54 | 48.95015 | 11.44667 | 14537 ft | 385 kts | 351° |
| 2026-05-07 19:54 | 48.97715 | 11.44144 | 15101 ft | 387 kts | 351° |
| 2026-05-07 19:54 | 49.00362 | 11.43677 | 15637 ft | 391 kts | 355° |
| 2026-05-07 19:55 | 49.03098 | 11.43872 | 16155 ft | 396 kts | 3° |
| 2026-05-07 19:55 | 49.05850 | 11.44261 | 16671 ft | 399 kts | 2° |
| 2026-05-07 19:55 | 49.08629 | 11.44635 | 17189 ft | 402 kts | 2° |
| 2026-05-07 19:55 | 49.11430 | 11.44999 | 17739 ft | 406 kts | 2° |
| 2026-05-07 19:56 | 49.14254 | 11.45369 | 18266 ft | 409 kts | 2° |
| 2026-05-07 19:56 | 49.17101 | 11.45736 | 18734 ft | 412 kts | 2° |
| 2026-05-07 19:56 | 49.19964 | 11.46114 | 19230 ft | 414 kts | 2° |
| 2026-05-07 19:56 | 49.22846 | 11.46488 | 19715 ft | 416 kts | 2° |
| 2026-05-07 19:57 | 49.25741 | 11.46861 | 20172 ft | 419 kts | 2° |
| 2026-05-07 19:57 | 49.28654 | 11.47245 | 20615 ft | 422 kts | 2° |
| 2026-05-07 19:57 | 49.31584 | 11.47641 | 21042 ft | 424 kts | 2° |
| 2026-05-07 19:57 | 49.34533 | 11.48026 | 21462 ft | 427 kts | 2° |
| 2026-05-07 19:58 | 49.37501 | 11.48410 | 21865 ft | 430 kts | 2° |
| 2026-05-07 19:58 | 49.40480 | 11.48807 | 22291 ft | 432 kts | 3° |
| 2026-05-07 19:58 | 49.43495 | 11.49204 | 22708 ft | 435 kts | 3° |
| 2026-05-07 19:58 | 49.46517 | 11.49593 | 23117 ft | 437 kts | 3° |
| 2026-05-07 19:59 | 49.49554 | 11.49994 | 23510 ft | 440 kts | 3° |
| 2026-05-07 19:59 | 49.52613 | 11.50399 | 23862 ft | 442 kts | 3° |
| 2026-05-07 19:59 | 49.55691 | 11.50807 | 24204 ft | 444 kts | 3° |
| 2026-05-07 19:59 | 49.58779 | 11.51223 | 24554 ft | 446 kts | 3° |
| 2026-05-07 20:00 | 49.61875 | 11.51635 | 24901 ft | 448 kts | 3° |
| 2026-05-07 20:00 | 49.64985 | 11.52041 | 25281 ft | 449 kts | 3° |
| 2026-05-07 20:00 | 49.68099 | 11.52456 | 25628 ft | 450 kts | 4° |
| 2026-05-07 20:00 | 49.71224 | 11.52881 | 25957 ft | 452 kts | 4° |
| 2026-05-07 20:01 | 49.74344 | 11.53559 | 26260 ft | 455 kts | 14° |
| 2026-05-07 20:01 | 49.77345 | 11.55199 | 26553 ft | 459 kts | 19° |
| 2026-05-07 20:01 | 49.80325 | 11.56978 | 26846 ft | 460 kts | 19° |
| 2026-05-07 20:01 | 49.83318 | 11.58766 | 27138 ft | 462 kts | 19° |
| 2026-05-07 20:02 | 49.86323 | 11.60561 | 27457 ft | 462 kts | 19° |
| 2026-05-07 20:02 | 49.89319 | 11.62349 | 27911 ft | 460 kts | 19° |
| 2026-05-07 20:02 | 49.92300 | 11.64130 | 28339 ft | 459 kts | 19° |
| 2026-05-07 20:02 | 49.95275 | 11.65907 | 28758 ft | 458 kts | 19° |
| 2026-05-07 20:03 | 49.98242 | 11.67680 | 29169 ft | 456 kts | 19° |
| 2026-05-07 20:03 | 50.01203 | 11.69449 | 29576 ft | 455 kts | 19° |
| 2026-05-07 20:03 | 50.04158 | 11.71214 | 29996 ft | 454 kts | 19° |
| 2026-05-07 20:03 | 50.07107 | 11.72975 | 30383 ft | 453 kts | 19° |
| 2026-05-07 20:04 | 50.10041 | 11.74725 | 30747 ft | 451 kts | 19° |
| 2026-05-07 20:04 | 50.12969 | 11.76480 | 31037 ft | 451 kts | 19° |
| 2026-05-07 20:04 | 50.15903 | 11.78245 | 31310 ft | 452 kts | 19° |
| 2026-05-07 20:04 | 50.18891 | 11.79728 | 31571 ft | 450 kts | 8° |
| 2026-05-07 20:05 | 50.21999 | 11.80185 | 31820 ft | 449 kts | 1° |
| 2026-05-07 20:05 | 50.25069 | 11.80438 | 32064 ft | 449 kts | 1° |
| 2026-05-07 20:05 | 50.28234 | 11.80732 | 32341 ft | 450 kts | 2° |
| 2026-05-07 20:05 | 50.31357 | 11.81034 | 32619 ft | 450 kts | 2° |
| 2026-05-07 20:06 | 50.34444 | 11.81328 | 32868 ft | 450 kts | 2° |
| 2026-05-07 20:06 | 50.37570 | 11.81637 | 33108 ft | 451 kts | 2° |
| 2026-05-07 20:06 | 50.40700 | 11.81953 | 33344 ft | 451 kts | 2° |
| 2026-05-07 20:06 | 50.43836 | 11.82256 | 33584 ft | 452 kts | 2° |
| 2026-05-07 20:07 | 50.46976 | 11.82564 | 33819 ft | 452 kts | 2° |
| 2026-05-07 20:07 | 50.50120 | 11.82877 | 34032 ft | 454 kts | 1° |
| 2026-05-07 20:07 | 50.56433 | 11.83500 | 34087 ft | 454 kts | 1° |
| 2026-05-07 20:08 | 50.62733 | 11.84126 | 34089 ft | 454 kts | 2° |
| 2026-05-07 20:08 | 50.69030 | 11.84745 | 34089 ft | 454 kts | 1° |
| 2026-05-07 20:09 | 50.75327 | 11.85377 | 34091 ft | 454 kts | 2° |
| 2026-05-07 20:10 | 50.84784 | 11.86316 | 34100 ft | 454 kts | 2° |
| 2026-05-07 20:10 | 50.91093 | 11.86941 | 34103 ft | 454 kts | 2° |
| 2026-05-07 20:11 | 50.97407 | 11.87586 | 34114 ft | 455 kts | 2° |
| 2026-05-07 20:11 | 51.03720 | 11.88221 | 34111 ft | 454 kts | 2° |
| 2026-05-07 20:12 | 51.10026 | 11.88855 | 34114 ft | 454 kts | 2° |
| 2026-05-07 20:12 | 51.16331 | 11.89489 | 34113 ft | 454 kts | 2° |
| 2026-05-07 20:13 | 51.22633 | 11.90133 | 34119 ft | 454 kts | 2° |
| 2026-05-07 20:13 | 51.28933 | 11.90766 | 34118 ft | 454 kts | 2° |
| 2026-05-07 20:14 | 51.35196 | 11.91414 | 34115 ft | 454 kts | 2° |
| 2026-05-07 20:14 | 51.40616 | 11.91970 | 34121 ft | 454 kts | 2° |
| 2026-05-07 20:15 | 51.45150 | 11.92428 | 34124 ft | 454 kts | 2° |
| 2026-05-07 20:15 | 51.51446 | 11.93086 | 34121 ft | 453 kts | 2° |
| 2026-05-07 20:16 | 51.57700 | 11.93727 | 34119 ft | 453 kts | 2° |
| 2026-05-07 20:16 | 51.63991 | 11.94387 | 34118 ft | 453 kts | 2° |
| 2026-05-07 20:17 | 51.70282 | 11.95027 | 34111 ft | 453 kts | 2° |
| 2026-05-07 20:17 | 51.76570 | 11.95681 | 34118 ft | 453 kts | 3° |
| 2026-05-07 20:18 | 51.82861 | 11.96346 | 34121 ft | 453 kts | 2° |
| 2026-05-07 20:18 | 51.89149 | 11.96989 | 34115 ft | 453 kts | 2° |
| 2026-05-07 20:19 | 51.94374 | 11.97542 | 34120 ft | 453 kts | 3° |
| 2026-05-07 20:19 | 52.00666 | 11.98208 | 34122 ft | 453 kts | 2° |
| 2026-05-07 20:20 | 52.06961 | 11.98874 | 34115 ft | 453 kts | 2° |
| 2026-05-07 20:20 | 52.13260 | 11.99525 | 34121 ft | 454 kts | 3° |
| 2026-05-07 20:21 | 52.19558 | 12.00205 | 34121 ft | 454 kts | 3° |
| 2026-05-07 20:21 | 52.25861 | 12.00868 | 34125 ft | 454 kts | 3° |
| 2026-05-07 20:22 | 52.32163 | 12.01559 | 34124 ft | 454 kts | 3° |
| 2026-05-07 20:22 | 52.38468 | 12.02219 | 34132 ft | 454 kts | 3° |
| 2026-05-07 20:23 | 52.44775 | 12.02900 | 34131 ft | 454 kts | 3° |
| 2026-05-07 20:23 | 52.51078 | 12.03573 | 34132 ft | 454 kts | 3° |
| 2026-05-07 20:24 | 52.57375 | 12.04268 | 34132 ft | 453 kts | 3° |
| 2026-05-07 20:24 | 52.63662 | 12.04938 | 34138 ft | 453 kts | 3° |
| 2026-05-07 20:25 | 52.69949 | 12.05616 | 34134 ft | 453 kts | 3° |
| 2026-05-07 20:25 | 52.76232 | 12.06309 | 34140 ft | 452 kts | 3° |
| 2026-05-07 20:26 | 52.82513 | 12.06976 | 34135 ft | 452 kts | 3° |
| 2026-05-07 20:26 | 52.88796 | 12.07683 | 34139 ft | 452 kts | 3° |
| 2026-05-07 20:27 | 52.95077 | 12.08385 | 34145 ft | 452 kts | 3° |
| 2026-05-07 20:27 | 53.01316 | 12.09052 | 34141 ft | 452 kts | 3° |
| 2026-05-07 20:28 | 53.07593 | 12.09749 | 34139 ft | 452 kts | 3° |
| 2026-05-07 20:28 | 53.13869 | 12.10451 | 34146 ft | 452 kts | 3° |
| 2026-05-07 20:29 | 53.20148 | 12.11138 | 34143 ft | 452 kts | 4° |
| 2026-05-07 20:29 | 53.26416 | 12.11835 | 34145 ft | 452 kts | 3° |
| 2026-05-07 20:30 | 53.32686 | 12.12530 | 34149 ft | 451 kts | 3° |
| 2026-05-07 20:30 | 53.38956 | 12.13228 | 34155 ft | 451 kts | 4° |
| 2026-05-07 20:31 | 53.45219 | 12.13928 | 34159 ft | 451 kts | 4° |
| 2026-05-07 20:31 | 53.51479 | 12.14636 | 34157 ft | 451 kts | 4° |
| 2026-05-07 20:32 | 53.57737 | 12.15354 | 34155 ft | 450 kts | 4° |
| 2026-05-07 20:32 | 53.63990 | 12.16074 | 34159 ft | 450 kts | 4° |
| 2026-05-07 20:33 | 53.70237 | 12.16770 | 34162 ft | 450 kts | 4° |
| 2026-05-07 20:33 | 53.76479 | 12.17475 | 34161 ft | 449 kts | 4° |
| 2026-05-07 20:34 | 53.82715 | 12.18190 | 34163 ft | 449 kts | 4° |
| 2026-05-07 20:34 | 53.88946 | 12.18914 | 34183 ft | 449 kts | 4° |
| 2026-05-07 20:35 | 53.95172 | 12.19610 | 34181 ft | 448 kts | 4° |
| 2026-05-07 20:35 | 54.01394 | 12.20346 | 34177 ft | 448 kts | 4° |
| 2026-05-07 20:36 | 54.07608 | 12.21075 | 34179 ft | 448 kts | 4° |
| 2026-05-07 20:36 | 54.13817 | 12.21789 | 33823 ft | 446 kts | 5° |
| 2026-05-07 20:36 | 54.16907 | 12.22151 | 33546 ft | 444 kts | 5° |
| 2026-05-07 20:37 | 54.19988 | 12.22507 | 33266 ft | 444 kts | 5° |
| 2026-05-07 20:37 | 54.23072 | 12.22859 | 32994 ft | 444 kts | 5° |
| 2026-05-07 20:37 | 54.26156 | 12.23218 | 32729 ft | 445 kts | 5° |
| 2026-05-07 20:37 | 54.29207 | 12.23575 | 32466 ft | 446 kts | 5° |
| 2026-05-07 20:38 | 54.32305 | 12.23937 | 32199 ft | 446 kts | 4° |
| 2026-05-07 20:38 | 54.35397 | 12.24294 | 31443 ft | 447 kts | 5° |
| 2026-05-07 20:38 | 54.38519 | 12.24675 | 30505 ft | 452 kts | 4° |
| 2026-05-07 20:38 | 54.41662 | 12.25049 | 29607 ft | 453 kts | 4° |
| 2026-05-07 20:39 | 54.44803 | 12.25419 | 28720 ft | 452 kts | 4° |
| 2026-05-07 20:39 | 54.47944 | 12.25789 | 27816 ft | 453 kts | 4° |
| 2026-05-07 20:39 | 54.51091 | 12.26162 | 26871 ft | 454 kts | 4° |
| 2026-05-07 20:39 | 54.54248 | 12.26540 | 25962 ft | 455 kts | 4° |
| 2026-05-07 20:40 | 54.57389 | 12.26914 | 25337 ft | 450 kts | 4° |
| 2026-05-07 20:40 | 54.60495 | 12.27288 | 24688 ft | 445 kts | 4° |
| 2026-05-07 20:40 | 54.63569 | 12.27634 | 24040 ft | 441 kts | 4° |
| 2026-05-07 20:40 | 54.66624 | 12.27993 | 23335 ft | 438 kts | 4° |
| 2026-05-07 20:41 | 54.69642 | 12.28355 | 22672 ft | 432 kts | 4° |
| 2026-05-07 20:41 | 54.72617 | 12.28714 | 22033 ft | 426 kts | 4° |
| 2026-05-07 20:41 | 54.75554 | 12.29068 | 21388 ft | 421 kts | 4° |
| 2026-05-07 20:41 | 54.78457 | 12.29426 | 20751 ft | 416 kts | 4° |
| 2026-05-07 20:42 | 54.81333 | 12.29775 | 20118 ft | 413 kts | 4° |
| 2026-05-07 20:42 | 54.84191 | 12.30111 | 19479 ft | 410 kts | 4° |
| 2026-05-07 20:42 | 54.87032 | 12.30450 | 18848 ft | 408 kts | 4° |
| 2026-05-07 20:42 | 54.89862 | 12.30797 | 18180 ft | 407 kts | 4° |
| 2026-05-07 20:43 | 54.92659 | 12.31470 | 17517 ft | 405 kts | 12° |
| 2026-05-07 20:43 | 54.95334 | 12.32919 | 16898 ft | 402 kts | 22° |
| 2026-05-07 20:43 | 54.97805 | 12.35154 | 16277 ft | 399 kts | 32° |
| 2026-05-07 20:43 | 55.00105 | 12.37836 | 15666 ft | 396 kts | 34° |
| 2026-05-07 20:44 | 55.02378 | 12.40508 | 15054 ft | 393 kts | 34° |
| 2026-05-07 20:44 | 55.04639 | 12.43152 | 14446 ft | 390 kts | 34° |
| 2026-05-07 20:44 | 55.06883 | 12.45775 | 13810 ft | 387 kts | 34° |
| 2026-05-07 20:44 | 55.09112 | 12.48382 | 13149 ft | 383 kts | 34° |
| 2026-05-07 20:45 | 55.11308 | 12.50956 | 12576 ft | 377 kts | 34° |
| 2026-05-07 20:45 | 55.13440 | 12.53453 | 12430 ft | 359 kts | 34° |
| 2026-05-07 20:45 | 55.15458 | 12.55831 | 12315 ft | 342 kts | 34° |
| 2026-05-07 20:45 | 55.17395 | 12.58112 | 12165 ft | 329 kts | 34° |
| 2026-05-07 20:46 | 55.19257 | 12.60297 | 12022 ft | 316 kts | 34° |
| 2026-05-07 20:46 | 55.21046 | 12.62403 | 11888 ft | 304 kts | 34° |
| 2026-05-07 20:46 | 55.22781 | 12.64389 | 11754 ft | 293 kts | 29° |
| 2026-05-07 20:46 | 55.24633 | 12.65788 | 11460 ft | 290 kts | 19° |
| 2026-05-07 20:47 | 55.26549 | 12.66872 | 11080 ft | 289 kts | 19° |
| 2026-05-07 20:47 | 55.28462 | 12.67948 | 10715 ft | 288 kts | 19° |
| 2026-05-07 20:47 | 55.30362 | 12.69028 | 10348 ft | 287 kts | 19° |
| 2026-05-07 20:47 | 55.32257 | 12.70106 | 9975 ft | 286 kts | 19° |
| 2026-05-07 20:48 | 55.34145 | 12.71179 | 9587 ft | 284 kts | 19° |
| 2026-05-07 20:48 | 55.36013 | 12.72246 | 9225 ft | 282 kts | 19° |
| 2026-05-07 20:48 | 55.37844 | 12.73294 | 8934 ft | 279 kts | 19° |
| 2026-05-07 20:48 | 55.39688 | 12.74353 | 8695 ft | 278 kts | 19° |
| 2026-05-07 20:49 | 55.41562 | 12.75186 | 8369 ft | 280 kts | 2° |
| 2026-05-07 20:49 | 55.43457 | 12.74355 | 7961 ft | 281 kts | 330° |
| 2026-05-07 20:49 | 55.44909 | 12.72088 | 7539 ft | 278 kts | 307° |
| 2026-05-07 20:49 | 55.45763 | 12.69142 | 7091 ft | 266 kts | 285° |
| 2026-05-07 20:50 | 55.45954 | 12.65983 | 6629 ft | 256 kts | 264° |
| 2026-05-07 20:50 | 55.45484 | 12.62951 | 5753 ft | 262 kts | 242° |
| 2026-05-07 20:50 | 55.44381 | 12.60423 | 4903 ft | 268 kts | 226° |
| 2026-05-07 20:50 | 55.43060 | 12.58111 | 4333 ft | 268 kts | 226° |
| 2026-05-07 20:51 | 55.41770 | 12.55738 | 4173 ft | 268 kts | 234° |
| 2026-05-07 20:51 | 55.40952 | 12.52784 | 4165 ft | 266 kts | 258° |
| 2026-05-07 20:51 | 55.40871 | 12.49620 | 4176 ft | 262 kts | 282° |
| 2026-05-07 20:51 | 55.41484 | 12.46726 | 4169 ft | 245 kts | 304° |
| 2026-05-07 20:52 | 55.42581 | 12.44588 | 4050 ft | 231 kts | 324° |
| 2026-05-07 20:52 | 55.43980 | 12.43217 | 3743 ft | 225 kts | 336° |
| 2026-05-07 20:52 | 55.45435 | 12.42218 | 3343 ft | 224 kts | 349° |
| 2026-05-07 20:52 | 55.46943 | 12.42274 | 3228 ft | 221 kts | 14° |
| 2026-05-07 20:53 | 55.48320 | 12.43452 | 2929 ft | 221 kts | 35° |
| 2026-05-07 20:53 | 55.49486 | 12.45214 | 2635 ft | 220 kts | 42° |
| 2026-05-07 20:53 | 55.50603 | 12.47062 | 2328 ft | 215 kts | 41° |
| 2026-05-07 20:53 | 55.51697 | 12.48787 | 2054 ft | 206 kts | 40° |
| 2026-05-07 20:54 | 55.52749 | 12.50399 | 1760 ft | 193 kts | 40° |
| 2026-05-07 20:54 | 55.53701 | 12.51857 | 1516 ft | 170 kts | 40° |
| 2026-05-07 20:54 | 55.54545 | 12.53153 | 1290 ft | 153 kts | 40° |
| 2026-05-07 20:54 | 55.55330 | 12.54360 | 1066 ft | 147 kts | 40° |
| 2026-05-07 20:55 | 55.56094 | 12.55535 | 862 ft | 144 kts | 40° |
| 2026-05-07 20:55 | 55.56847 | 12.56694 | 668 ft | 143 kts | 40° |
| 2026-05-07 20:55 | 55.57595 | 12.57844 | 477 ft | 142 kts | 40° |
| 2026-05-07 20:55 | 55.58330 | 12.58971 | 302 ft | 141 kts | 40° |
| 2026-05-07 20:56 | 55.59072 | 12.60125 | 106 ft | 140 kts | 40° |
| 2026-05-07 20:56 | 55.59777 | 12.61211 | 16 ft | 120 kts | 41° |
| 2026-05-07 20:56 | 55.60317 | 12.62049 | 17 ft | 89 kts | 41° |
| 2026-05-07 20:56 | 55.60718 | 12.62666 | 20 ft | 62 kts | 40° |
| 2026-05-07 20:57 | 55.60957 | 12.62857 | 18 ft | 30 kts | 10° |
| 2026-05-07 20:57 | 55.61152 | 12.62964 | 17 ft | 29 kts | 38° |
| 2026-05-07 20:57 | 55.61304 | 12.63198 | 17 ft | 29 kts | 41° |
| 2026-05-07 20:57 | 55.61453 | 12.63429 | 17 ft | 29 kts | 41° |
| 2026-05-07 20:58 | 55.61606 | 12.63664 | 17 ft | 29 kts | 41° |
| 2026-05-07 20:58 | 55.61759 | 12.63901 | 18 ft | 29 kts | 41° |
| 2026-05-07 20:58 | 55.61924 | 12.64117 | 17 ft | 29 kts | 25° |
| 2026-05-07 20:58 | 55.62106 | 12.64269 | 17 ft | 29 kts | 25° |
| 2026-05-07 20:59 | 55.62297 | 12.64413 | 18 ft | 30 kts | 17° |
| 2026-05-07 20:59 | 55.62461 | 12.64481 | 17 ft | 18 kts | 7° |
| 2026-05-07 20:59 | 55.62552 | 12.64507 | 17 ft | 6 kts | 17° |
| 2026-05-07 20:59 | 55.62564 | 12.64513 | 17 ft | 0 kts | 15° |